sensor_id;sensor_type;location;lat;lon;timestamp;P1;durP1;ratioP1;P2;durP2;ratioP2
70981;SDS011;58640;51.320;9.456;2023-03-29T00:00:18;6.45;;;3.00;;
70981;SDS011;58640;51.320;9.456;2023-03-29T00:02:45;7.93;;;2.90;;
70981;SDS011;58640;51.320;9.456;2023-03-29T00:05:12;8.10;;;3.30;;
70981;SDS011;58640;51.320;9.456;2023-03-29T00:07:39;6.07;;;3.35;;
70981;SDS011;58640;51.320;9.456;2023-03-29T00:10:06;7.47;;;3.45;;
70981;SDS011;58640;51.320;9.456;2023-03-29T00:12:34;5.70;;;3.22;;
70981;SDS011;58640;51.320;9.456;2023-03-29T00:15:00;10.75;;;3.70;;
70981;SDS011;58640;51.320;9.456;2023-03-29T00:17:26;6.43;;;3.50;;
70981;SDS011;58640;51.320;9.456;2023-03-29T00:19:51;7.20;;;3.53;;
70981;SDS011;58640;51.320;9.456;2023-03-29T00:22:17;8.70;;;4.18;;
70981;SDS011;58640;51.320;9.456;2023-03-29T00:24:42;7.53;;;3.42;;
70981;SDS011;58640;51.320;9.456;2023-03-29T00:27:08;9.75;;;3.90;;
70981;SDS011;58640;51.320;9.456;2023-03-29T00:29:33;7.13;;;4.25;;
70981;SDS011;58640;51.320;9.456;2023-03-29T00:31:58;6.93;;;3.47;;
70981;SDS011;58640;51.320;9.456;2023-03-29T00:34:25;9.07;;;4.18;;
70981;SDS011;58640;51.320;9.456;2023-03-29T00:36:56;6.90;;;3.90;;
70981;SDS011;58640;51.320;9.456;2023-03-29T00:39:22;9.10;;;4.10;;
70981;SDS011;58640;51.320;9.456;2023-03-29T00:41:49;12.35;;;4.75;;
70981;SDS011;58640;51.320;9.456;2023-03-29T00:47:17;7.40;;;4.13;;
70981;SDS011;58640;51.320;9.456;2023-03-29T00:49:52;6.95;;;4.18;;
70981;SDS011;58640;51.320;9.456;2023-03-29T00:52:19;5.75;;;3.90;;
70981;SDS011;58640;51.320;9.456;2023-03-29T00:54:46;7.78;;;4.85;;
70981;SDS011;58640;51.320;9.456;2023-03-29T00:57:17;9.07;;;4.70;;
70981;SDS011;58640;51.320;9.456;2023-03-29T00:59:46;7.07;;;4.38;;
70981;SDS011;58640;51.320;9.456;2023-03-29T01:02:12;8.48;;;4.38;;
70981;SDS011;58640;51.320;9.456;2023-03-29T01:04:50;10.93;;;4.82;;
70981;SDS011;58640;51.320;9.456;2023-03-29T01:10:40;9.82;;;4.50;;
70981;SDS011;58640;51.320;9.456;2023-03-29T01:13:14;11.73;;;5.00;;
70981;SDS011;58640;51.320;9.456;2023-03-29T01:15:44;7.55;;;5.03;;
70981;SDS011;58640;51.320;9.456;2023-03-29T01:18:11;13.10;;;5.70;;
70981;SDS011;58640;51.320;9.456;2023-03-29T01:23:34;6.45;;;4.97;;
70981;SDS011;58640;51.320;9.456;2023-03-29T01:26:13;7.80;;;5.40;;
70981;SDS011;58640;51.320;9.456;2023-03-29T01:29:11;10.77;;;5.93;;
70981;SDS011;58640;51.320;9.456;2023-03-29T01:31:53;10.10;;;6.15;;
70981;SDS011;58640;51.320;9.456;2023-03-29T01:34:24;10.25;;;6.22;;
70981;SDS011;58640;51.320;9.456;2023-03-29T01:37:16;8.95;;;6.75;;
70981;SDS011;58640;51.320;9.456;2023-03-29T01:39:51;10.25;;;5.30;;
70981;SDS011;58640;51.320;9.456;2023-03-29T01:42:21;10.45;;;5.90;;
70981;SDS011;58640;51.320;9.456;2023-03-29T01:45:11;16.25;;;7.13;;
70981;SDS011;58640;51.320;9.456;2023-03-29T01:55:48;12.98;;;7.20;;
70981;SDS011;58640;51.320;9.456;2023-03-29T01:58:17;13.23;;;6.32;;
70981;SDS011;58640;51.320;9.456;2023-03-29T02:00:47;8.90;;;6.68;;
70981;SDS011;58640;51.320;9.456;2023-03-29T02:03:17;9.55;;;6.40;;
70981;SDS011;58640;51.320;9.456;2023-03-29T02:05:45;11.30;;;6.15;;
70981;SDS011;58640;51.320;9.456;2023-03-29T02:08:11;13.52;;;7.28;;
70981;SDS011;58640;51.320;9.456;2023-03-29T02:10:40;12.00;;;6.70;;
70981;SDS011;58640;51.320;9.456;2023-03-29T02:13:06;10.05;;;6.38;;
70981;SDS011;58640;51.320;9.456;2023-03-29T02:15:31;10.52;;;6.30;;
70981;SDS011;58640;51.320;9.456;2023-03-29T02:17:56;9.75;;;6.25;;
70981;SDS011;58640;51.320;9.456;2023-03-29T02:20:24;12.98;;;6.43;;
70981;SDS011;58640;51.320;9.456;2023-03-29T02:23:00;12.05;;;6.07;;
70981;SDS011;58640;51.320;9.456;2023-03-29T02:25:38;11.55;;;6.43;;
70981;SDS011;58640;51.320;9.456;2023-03-29T02:28:04;11.68;;;6.57;;
70981;SDS011;58640;51.320;9.456;2023-03-29T02:30:50;11.45;;;6.55;;
70981;SDS011;58640;51.320;9.456;2023-03-29T02:39:05;12.07;;;6.75;;
70981;SDS011;58640;51.320;9.456;2023-03-29T02:41:35;14.68;;;7.20;;
70981;SDS011;58640;51.320;9.456;2023-03-29T02:44:02;12.85;;;7.15;;
70981;SDS011;58640;51.320;9.456;2023-03-29T02:46:29;14.50;;;7.43;;
70981;SDS011;58640;51.320;9.456;2023-03-29T02:48:55;11.43;;;8.07;;
70981;SDS011;58640;51.320;9.456;2023-03-29T02:51:23;12.75;;;6.90;;
70981;SDS011;58640;51.320;9.456;2023-03-29T02:53:55;12.93;;;6.78;;
70981;SDS011;58640;51.320;9.456;2023-03-29T02:56:25;10.32;;;6.80;;
70981;SDS011;58640;51.320;9.456;2023-03-29T02:58:51;9.93;;;7.03;;
70981;SDS011;58640;51.320;9.456;2023-03-29T03:01:16;11.80;;;6.68;;
70981;SDS011;58640;51.320;9.456;2023-03-29T03:03:42;12.10;;;6.70;;
70981;SDS011;58640;51.320;9.456;2023-03-29T03:06:08;11.05;;;7.40;;
70981;SDS011;58640;51.320;9.456;2023-03-29T03:08:34;9.75;;;6.38;;
70981;SDS011;58640;51.320;9.456;2023-03-29T03:11:00;8.18;;;6.00;;
70981;SDS011;58640;51.320;9.456;2023-03-29T03:13:25;10.07;;;6.40;;
70981;SDS011;58640;51.320;9.456;2023-03-29T03:15:51;10.48;;;6.75;;
70981;SDS011;58640;51.320;9.456;2023-03-29T03:18:16;14.68;;;6.90;;
70981;SDS011;58640;51.320;9.456;2023-03-29T03:20:42;11.38;;;6.10;;
70981;SDS011;58640;51.320;9.456;2023-03-29T03:23:10;12.13;;;6.53;;
70981;SDS011;58640;51.320;9.456;2023-03-29T03:25:36;12.77;;;6.55;;
70981;SDS011;58640;51.320;9.456;2023-03-29T03:28:01;13.07;;;6.63;;
70981;SDS011;58640;51.320;9.456;2023-03-29T03:30:26;14.77;;;6.53;;
70981;SDS011;58640;51.320;9.456;2023-03-29T03:32:52;8.60;;;5.90;;
70981;SDS011;58640;51.320;9.456;2023-03-29T03:35:21;15.95;;;6.18;;
70981;SDS011;58640;51.320;9.456;2023-03-29T03:37:46;13.50;;;6.90;;
70981;SDS011;58640;51.320;9.456;2023-03-29T03:40:12;13.02;;;6.55;;
70981;SDS011;58640;51.320;9.456;2023-03-29T03:42:38;8.82;;;6.47;;
70981;SDS011;58640;51.320;9.456;2023-03-29T03:45:05;11.13;;;6.95;;
70981;SDS011;58640;51.320;9.456;2023-03-29T03:47:32;13.57;;;6.80;;
70981;SDS011;58640;51.320;9.456;2023-03-29T03:49:58;12.32;;;7.00;;
70981;SDS011;58640;51.320;9.456;2023-03-29T03:52:23;13.70;;;6.95;;
70981;SDS011;58640;51.320;9.456;2023-03-29T03:54:49;9.05;;;6.53;;
70981;SDS011;58640;51.320;9.456;2023-03-29T03:57:14;11.05;;;6.45;;
70981;SDS011;58640;51.320;9.456;2023-03-29T03:59:40;9.50;;;6.25;;
70981;SDS011;58640;51.320;9.456;2023-03-29T04:02:06;9.95;;;7.03;;
70981;SDS011;58640;51.320;9.456;2023-03-29T04:04:31;9.45;;;5.75;;
70981;SDS011;58640;51.320;9.456;2023-03-29T04:06:56;9.18;;;6.07;;
70981;SDS011;58640;51.320;9.456;2023-03-29T04:09:27;10.15;;;6.38;;
70981;SDS011;58640;51.320;9.456;2023-03-29T04:11:54;8.93;;;6.00;;
70981;SDS011;58640;51.320;9.456;2023-03-29T04:14:19;10.32;;;6.15;;
70981;SDS011;58640;51.320;9.456;2023-03-29T04:16:45;11.75;;;6.28;;
70981;SDS011;58640;51.320;9.456;2023-03-29T04:19:11;12.02;;;6.50;;
70981;SDS011;58640;51.320;9.456;2023-03-29T04:21:37;13.18;;;7.32;;
70981;SDS011;58640;51.320;9.456;2023-03-29T04:24:03;9.88;;;6.00;;
70981;SDS011;58640;51.320;9.456;2023-03-29T04:26:28;13.15;;;7.40;;
70981;SDS011;58640;51.320;9.456;2023-03-29T04:28:53;11.05;;;6.38;;
70981;SDS011;58640;51.320;9.456;2023-03-29T04:31:19;10.20;;;6.72;;
70981;SDS011;58640;51.320;9.456;2023-03-29T04:33:44;13.85;;;6.63;;
70981;SDS011;58640;51.320;9.456;2023-03-29T04:36:11;8.02;;;6.30;;
70981;SDS011;58640;51.320;9.456;2023-03-29T04:38:37;11.50;;;6.53;;
70981;SDS011;58640;51.320;9.456;2023-03-29T04:41:05;12.85;;;6.60;;
70981;SDS011;58640;51.320;9.456;2023-03-29T04:43:32;12.45;;;6.78;;
70981;SDS011;58640;51.320;9.456;2023-03-29T04:45:58;11.15;;;6.97;;
70981;SDS011;58640;51.320;9.456;2023-03-29T04:48:23;13.18;;;6.90;;
70981;SDS011;58640;51.320;9.456;2023-03-29T04:50:49;12.63;;;7.20;;
70981;SDS011;58640;51.320;9.456;2023-03-29T04:53:15;9.50;;;6.55;;
70981;SDS011;58640;51.320;9.456;2023-03-29T04:55:41;11.95;;;7.25;;
70981;SDS011;58640;51.320;9.456;2023-03-29T04:58:06;12.45;;;5.90;;
70981;SDS011;58640;51.320;9.456;2023-03-29T05:00:32;10.48;;;6.43;;
70981;SDS011;58640;51.320;9.456;2023-03-29T05:02:57;10.27;;;6.95;;
70981;SDS011;58640;51.320;9.456;2023-03-29T05:05:23;11.55;;;6.70;;
70981;SDS011;58640;51.320;9.456;2023-03-29T05:07:49;10.85;;;6.63;;
70981;SDS011;58640;51.320;9.456;2023-03-29T05:10:15;10.95;;;6.60;;
70981;SDS011;58640;51.320;9.456;2023-03-29T05:12:40;13.43;;;6.65;;
70981;SDS011;58640;51.320;9.456;2023-03-29T05:15:06;12.60;;;6.15;;
70981;SDS011;58640;51.320;9.456;2023-03-29T05:17:33;9.20;;;5.97;;
70981;SDS011;58640;51.320;9.456;2023-03-29T05:19:59;8.50;;;6.32;;
70981;SDS011;58640;51.320;9.456;2023-03-29T05:22:25;10.85;;;6.63;;
70981;SDS011;58640;51.320;9.456;2023-03-29T05:24:51;13.63;;;7.68;;
70981;SDS011;58640;51.320;9.456;2023-03-29T05:27:16;9.90;;;6.28;;
70981;SDS011;58640;51.320;9.456;2023-03-29T05:29:42;10.20;;;6.45;;
70981;SDS011;58640;51.320;9.456;2023-03-29T05:32:09;10.68;;;7.05;;
70981;SDS011;58640;51.320;9.456;2023-03-29T05:34:34;8.75;;;5.90;;
70981;SDS011;58640;51.320;9.456;2023-03-29T05:37:01;12.48;;;7.40;;
70981;SDS011;58640;51.320;9.456;2023-03-29T05:39:26;10.27;;;5.93;;
70981;SDS011;58640;51.320;9.456;2023-03-29T05:41:51;12.68;;;6.32;;
70981;SDS011;58640;51.320;9.456;2023-03-29T05:44:18;9.70;;;5.60;;
70981;SDS011;58640;51.320;9.456;2023-03-29T05:46:44;11.23;;;5.38;;
70981;SDS011;58640;51.320;9.456;2023-03-29T05:49:09;9.55;;;5.90;;
70981;SDS011;58640;51.320;9.456;2023-03-29T05:51:36;8.07;;;5.47;;
70981;SDS011;58640;51.320;9.456;2023-03-29T05:54:01;9.23;;;6.13;;
70981;SDS011;58640;51.320;9.456;2023-03-29T05:56:27;8.13;;;5.55;;
70981;SDS011;58640;51.320;9.456;2023-03-29T05:58:52;10.10;;;5.70;;
70981;SDS011;58640;51.320;9.456;2023-03-29T06:01:21;9.75;;;5.28;;
70981;SDS011;58640;51.320;9.456;2023-03-29T06:03:48;7.53;;;5.15;;
70981;SDS011;58640;51.320;9.456;2023-03-29T06:06:14;7.15;;;4.57;;
70981;SDS011;58640;51.320;9.456;2023-03-29T06:08:40;9.43;;;5.25;;
70981;SDS011;58640;51.320;9.456;2023-03-29T06:11:06;8.88;;;5.32;;
70981;SDS011;58640;51.320;9.456;2023-03-29T06:13:34;7.28;;;4.80;;
70981;SDS011;58640;51.320;9.456;2023-03-29T06:16:01;8.73;;;4.82;;
70981;SDS011;58640;51.320;9.456;2023-03-29T06:18:28;7.50;;;4.90;;
70981;SDS011;58640;51.320;9.456;2023-03-29T06:20:54;7.97;;;5.65;;
70981;SDS011;58640;51.320;9.456;2023-03-29T06:23:20;8.68;;;5.53;;
70981;SDS011;58640;51.320;9.456;2023-03-29T06:25:47;8.75;;;5.60;;
70981;SDS011;58640;51.320;9.456;2023-03-29T06:28:15;7.75;;;5.05;;
70981;SDS011;58640;51.320;9.456;2023-03-29T06:30:41;8.68;;;4.97;;
70981;SDS011;58640;51.320;9.456;2023-03-29T06:33:08;9.77;;;5.88;;
70981;SDS011;58640;51.320;9.456;2023-03-29T06:35:34;10.07;;;4.90;;
70981;SDS011;58640;51.320;9.456;2023-03-29T06:38:01;8.68;;;4.93;;
70981;SDS011;58640;51.320;9.456;2023-03-29T06:40:27;8.50;;;5.22;;
70981;SDS011;58640;51.320;9.456;2023-03-29T06:42:55;8.73;;;5.20;;
70981;SDS011;58640;51.320;9.456;2023-03-29T06:45:22;11.32;;;5.60;;
70981;SDS011;58640;51.320;9.456;2023-03-29T06:47:48;11.95;;;4.95;;
70981;SDS011;58640;51.320;9.456;2023-03-29T06:50:14;8.13;;;5.32;;
70981;SDS011;58640;51.320;9.456;2023-03-29T06:52:41;9.57;;;5.80;;
70981;SDS011;58640;51.320;9.456;2023-03-29T06:55:07;10.20;;;6.55;;
70981;SDS011;58640;51.320;9.456;2023-03-29T06:57:34;8.77;;;5.47;;
70981;SDS011;58640;51.320;9.456;2023-03-29T07:00:00;12.80;;;5.78;;
70981;SDS011;58640;51.320;9.456;2023-03-29T07:02:26;7.88;;;5.60;;
70981;SDS011;58640;51.320;9.456;2023-03-29T07:04:52;8.35;;;5.60;;
70981;SDS011;58640;51.320;9.456;2023-03-29T07:07:19;9.20;;;5.50;;
70981;SDS011;58640;51.320;9.456;2023-03-29T07:09:47;11.50;;;5.55;;
70981;SDS011;58640;51.320;9.456;2023-03-29T07:12:19;9.35;;;5.13;;
70981;SDS011;58640;51.320;9.456;2023-03-29T07:14:45;12.65;;;5.10;;
70981;SDS011;58640;51.320;9.456;2023-03-29T07:17:11;9.40;;;5.35;;
70981;SDS011;58640;51.320;9.456;2023-03-29T07:19:37;13.43;;;5.85;;
70981;SDS011;58640;51.320;9.456;2023-03-29T07:22:03;7.65;;;4.70;;
70981;SDS011;58640;51.320;9.456;2023-03-29T07:24:28;8.75;;;6.18;;
70981;SDS011;58640;51.320;9.456;2023-03-29T07:26:53;8.13;;;4.22;;
70981;SDS011;58640;51.320;9.456;2023-03-29T07:29:19;10.10;;;5.10;;
70981;SDS011;58640;51.320;9.456;2023-03-29T07:31:44;8.43;;;4.30;;
70981;SDS011;58640;51.320;9.456;2023-03-29T07:34:10;7.07;;;4.28;;
70981;SDS011;58640;51.320;9.456;2023-03-29T07:36:39;8.40;;;4.35;;
70981;SDS011;58640;51.320;9.456;2023-03-29T07:39:04;6.45;;;4.68;;
70981;SDS011;58640;51.320;9.456;2023-03-29T07:41:31;7.60;;;4.53;;
70981;SDS011;58640;51.320;9.456;2023-03-29T07:43:57;5.97;;;3.83;;
70981;SDS011;58640;51.320;9.456;2023-03-29T07:46:22;10.07;;;4.50;;
70981;SDS011;58640;51.320;9.456;2023-03-29T07:48:48;6.57;;;4.10;;
70981;SDS011;58640;51.320;9.456;2023-03-29T07:51:14;6.32;;;4.28;;
70981;SDS011;58640;51.320;9.456;2023-03-29T07:53:40;7.97;;;4.65;;
70981;SDS011;58640;51.320;9.456;2023-03-29T07:56:05;7.35;;;4.20;;
70981;SDS011;58640;51.320;9.456;2023-03-29T07:58:31;6.30;;;4.30;;
70981;SDS011;58640;51.320;9.456;2023-03-29T08:00:57;5.35;;;3.75;;
70981;SDS011;58640;51.320;9.456;2023-03-29T08:03:24;8.18;;;4.68;;
70981;SDS011;58640;51.320;9.456;2023-03-29T08:05:49;8.13;;;4.18;;
70981;SDS011;58640;51.320;9.456;2023-03-29T08:08:15;10.98;;;4.25;;
70981;SDS011;58640;51.320;9.456;2023-03-29T08:10:41;7.00;;;3.97;;
70981;SDS011;58640;51.320;9.456;2023-03-29T08:13:07;8.75;;;4.18;;
70981;SDS011;58640;51.320;9.456;2023-03-29T08:15:33;6.03;;;3.60;;
70981;SDS011;58640;51.320;9.456;2023-03-29T08:17:59;7.20;;;4.10;;
70981;SDS011;58640;51.320;9.456;2023-03-29T08:20:24;6.25;;;3.75;;
70981;SDS011;58640;51.320;9.456;2023-03-29T08:22:50;4.95;;;3.63;;
70981;SDS011;58640;51.320;9.456;2023-03-29T08:25:16;5.80;;;3.40;;
70981;SDS011;58640;51.320;9.456;2023-03-29T08:27:42;8.57;;;3.80;;
70981;SDS011;58640;51.320;9.456;2023-03-29T08:30:08;7.45;;;3.53;;
70981;SDS011;58640;51.320;9.456;2023-03-29T08:32:34;6.47;;;3.45;;
70981;SDS011;58640;51.320;9.456;2023-03-29T08:35:01;3.67;;;3.05;;
70981;SDS011;58640;51.320;9.456;2023-03-29T08:37:30;6.07;;;3.65;;
70981;SDS011;58640;51.320;9.456;2023-03-29T08:39:56;4.43;;;3.53;;
70981;SDS011;58640;51.320;9.456;2023-03-29T08:45:42;5.07;;;3.20;;
70981;SDS011;58640;51.320;9.456;2023-03-29T08:48:35;5.53;;;3.13;;
70981;SDS011;58640;51.320;9.456;2023-03-29T08:51:28;6.72;;;3.17;;
70981;SDS011;58640;51.320;9.456;2023-03-29T08:53:57;6.25;;;4.05;;
70981;SDS011;58640;51.320;9.456;2023-03-29T08:56:25;4.15;;;3.20;;
70981;SDS011;58640;51.320;9.456;2023-03-29T08:58:52;4.75;;;3.10;;
70981;SDS011;58640;51.320;9.456;2023-03-29T09:01:20;5.68;;;3.17;;
70981;SDS011;58640;51.320;9.456;2023-03-29T09:03:49;13.48;;;4.03;;
70981;SDS011;58640;51.320;9.456;2023-03-29T09:06:22;6.95;;;4.00;;
70981;SDS011;58640;51.320;9.456;2023-03-29T09:08:48;6.53;;;3.53;;
70981;SDS011;58640;51.320;9.456;2023-03-29T09:11:34;3.88;;;3.47;;
70981;SDS011;58640;51.320;9.456;2023-03-29T09:22:04;5.28;;;2.70;;
70981;SDS011;58640;51.320;9.456;2023-03-29T09:24:40;6.07;;;2.90;;
70981;SDS011;58640;51.320;9.456;2023-03-29T09:27:19;7.55;;;3.50;;
70981;SDS011;58640;51.320;9.456;2023-03-29T09:30:02;5.10;;;2.75;;
70981;SDS011;58640;51.320;9.456;2023-03-29T09:32:38;6.20;;;2.92;;
70981;SDS011;58640;51.320;9.456;2023-03-29T09:35:23;5.63;;;2.30;;
70981;SDS011;58640;51.320;9.456;2023-03-29T09:37:53;2.97;;;2.30;;
70981;SDS011;58640;51.320;9.456;2023-03-29T09:40:21;3.72;;;2.33;;
70981;SDS011;58640;51.320;9.456;2023-03-29T09:42:48;6.05;;;2.58;;
70981;SDS011;58640;51.320;9.456;2023-03-29T09:45:16;2.42;;;2.10;;
70981;SDS011;58640;51.320;9.456;2023-03-29T09:47:46;6.80;;;3.08;;
70981;SDS011;58640;51.320;9.456;2023-03-29T09:50:17;5.22;;;2.42;;
70981;SDS011;58640;51.320;9.456;2023-03-29T09:52:46;6.07;;;2.33;;
70981;SDS011;58640;51.320;9.456;2023-03-29T09:55:13;3.90;;;2.53;;
70981;SDS011;58640;51.320;9.456;2023-03-29T09:57:40;2.80;;;2.20;;
70981;SDS011;58640;51.320;9.456;2023-03-29T10:00:07;4.65;;;2.30;;
70981;SDS011;58640;51.320;9.456;2023-03-29T10:02:34;4.15;;;2.20;;
70981;SDS011;58640;51.320;9.456;2023-03-29T10:05:02;5.55;;;3.10;;
70981;SDS011;58640;51.320;9.456;2023-03-29T10:07:33;3.67;;;2.40;;
70981;SDS011;58640;51.320;9.456;2023-03-29T10:10:08;4.18;;;2.45;;
70981;SDS011;58640;51.320;9.456;2023-03-29T10:12:35;5.10;;;2.33;;
70981;SDS011;58640;51.320;9.456;2023-03-29T10:15:01;7.25;;;2.83;;
70981;SDS011;58640;51.320;9.456;2023-03-29T10:17:29;4.60;;;2.42;;
70981;SDS011;58640;51.320;9.456;2023-03-29T10:20:03;5.65;;;2.75;;
70981;SDS011;58640;51.320;9.456;2023-03-29T10:22:32;6.43;;;2.63;;
70981;SDS011;58640;51.320;9.456;2023-03-29T10:25:01;13.32;;;3.33;;
70981;SDS011;58640;51.320;9.456;2023-03-29T10:27:28;4.15;;;2.75;;
70981;SDS011;58640;51.320;9.456;2023-03-29T10:29:57;2.42;;;2.20;;
70981;SDS011;58640;51.320;9.456;2023-03-29T10:32:31;4.47;;;2.83;;
70981;SDS011;58640;51.320;9.456;2023-03-29T10:37:39;5.60;;;2.83;;
70981;SDS011;58640;51.320;9.456;2023-03-29T10:40:19;6.30;;;3.03;;
70981;SDS011;58640;51.320;9.456;2023-03-29T10:42:49;4.45;;;3.13;;
70981;SDS011;58640;51.320;9.456;2023-03-29T10:45:24;6.38;;;3.30;;
70981;SDS011;58640;51.320;9.456;2023-03-29T10:47:56;4.25;;;2.90;;
70981;SDS011;58640;51.320;9.456;2023-03-29T10:50:22;7.80;;;2.78;;
70981;SDS011;58640;51.320;9.456;2023-03-29T10:52:48;5.97;;;3.25;;
70981;SDS011;58640;51.320;9.456;2023-03-29T10:55:14;5.80;;;3.65;;
70981;SDS011;58640;51.320;9.456;2023-03-29T10:57:51;7.55;;;3.42;;
70981;SDS011;58640;51.320;9.456;2023-03-29T11:03:13;4.70;;;2.70;;
70981;SDS011;58640;51.320;9.456;2023-03-29T11:06:26;5.47;;;2.78;;
70981;SDS011;58640;51.320;9.456;2023-03-29T11:09:01;7.13;;;3.47;;
70981;SDS011;58640;51.320;9.456;2023-03-29T11:11:41;5.47;;;3.13;;
70981;SDS011;58640;51.320;9.456;2023-03-29T11:19:51;4.70;;;3.50;;
70981;SDS011;58640;51.320;9.456;2023-03-29T11:22:22;8.35;;;3.33;;
70981;SDS011;58640;51.320;9.456;2023-03-29T11:28:09;7.55;;;3.53;;
70981;SDS011;58640;51.320;9.456;2023-03-29T11:31:01;5.55;;;3.05;;
70981;SDS011;58640;51.320;9.456;2023-03-29T11:36:15;6.38;;;2.90;;
70981;SDS011;58640;51.320;9.456;2023-03-29T11:41:45;7.00;;;3.30;;
70981;SDS011;58640;51.320;9.456;2023-03-29T11:44:17;7.47;;;3.33;;
70981;SDS011;58640;51.320;9.456;2023-03-29T11:49:48;6.05;;;3.10;;
70981;SDS011;58640;51.320;9.456;2023-03-29T11:52:19;6.95;;;2.95;;
70981;SDS011;58640;51.320;9.456;2023-03-29T11:54:51;5.82;;;3.30;;
70981;SDS011;58640;51.320;9.456;2023-03-29T11:57:27;8.98;;;3.47;;
70981;SDS011;58640;51.320;9.456;2023-03-29T12:02:40;7.22;;;2.80;;
70981;SDS011;58640;51.320;9.456;2023-03-29T12:08:13;5.13;;;3.33;;
70981;SDS011;58640;51.320;9.456;2023-03-29T12:10:49;7.07;;;3.15;;
70981;SDS011;58640;51.320;9.456;2023-03-29T12:13:38;6.15;;;3.00;;
70981;SDS011;58640;51.320;9.456;2023-03-29T12:16:14;8.68;;;3.30;;
70981;SDS011;58640;51.320;9.456;2023-03-29T12:18:46;6.88;;;3.13;;
70981;SDS011;58640;51.320;9.456;2023-03-29T12:21:18;8.07;;;3.60;;
70981;SDS011;58640;51.320;9.456;2023-03-29T12:23:45;7.28;;;3.20;;
70981;SDS011;58640;51.320;9.456;2023-03-29T12:28:55;5.65;;;2.58;;
70981;SDS011;58640;51.320;9.456;2023-03-29T12:40:03;6.53;;;2.85;;
70981;SDS011;58640;51.320;9.456;2023-03-29T12:42:43;5.80;;;2.58;;
70981;SDS011;58640;51.320;9.456;2023-03-29T12:45:16;11.32;;;2.60;;
70981;SDS011;58640;51.320;9.456;2023-03-29T12:47:43;3.33;;;2.17;;
70981;SDS011;58640;51.320;9.456;2023-03-29T12:50:23;4.68;;;2.58;;
70981;SDS011;58640;51.320;9.456;2023-03-29T12:53:00;8.05;;;3.47;;
70981;SDS011;58640;51.320;9.456;2023-03-29T12:55:31;7.60;;;2.92;;
70981;SDS011;58640;51.320;9.456;2023-03-29T12:58:08;3.90;;;2.53;;
70981;SDS011;58640;51.320;9.456;2023-03-29T13:00:54;4.57;;;2.17;;
70981;SDS011;58640;51.320;9.456;2023-03-29T13:03:40;5.05;;;2.45;;
70981;SDS011;58640;51.320;9.456;2023-03-29T13:06:12;3.63;;;2.05;;
70981;SDS011;58640;51.320;9.456;2023-03-29T13:09:24;5.32;;;2.28;;
70981;SDS011;58640;51.320;9.456;2023-03-29T13:14:31;9.00;;;3.03;;
70981;SDS011;58640;51.320;9.456;2023-03-29T13:17:02;5.78;;;2.38;;
70981;SDS011;58640;51.320;9.456;2023-03-29T13:19:37;4.70;;;1.92;;
70981;SDS011;58640;51.320;9.456;2023-03-29T13:30:44;3.40;;;2.00;;
70981;SDS011;58640;51.320;9.456;2023-03-29T13:36:22;5.75;;;2.25;;
70981;SDS011;58640;51.320;9.456;2023-03-29T13:39:29;3.83;;;2.50;;
70981;SDS011;58640;51.320;9.456;2023-03-29T13:42:15;4.00;;;2.10;;
70981;SDS011;58640;51.320;9.456;2023-03-29T13:44:42;7.53;;;2.33;;
70981;SDS011;58640;51.320;9.456;2023-03-29T13:49:51;2.75;;;2.00;;
70981;SDS011;58640;51.320;9.456;2023-03-29T13:52:20;7.78;;;2.42;;
70981;SDS011;58640;51.320;9.456;2023-03-29T13:54:58;4.47;;;2.05;;
70981;SDS011;58640;51.320;9.456;2023-03-29T13:57:30;4.10;;;2.10;;
70981;SDS011;58640;51.320;9.456;2023-03-29T14:05:33;6.38;;;2.38;;
70981;SDS011;58640;51.320;9.456;2023-03-29T14:08:07;1.65;;;1.48;;
70981;SDS011;58640;51.320;9.456;2023-03-29T14:10:40;6.03;;;2.42;;
70981;SDS011;58640;51.320;9.456;2023-03-29T14:13:11;5.70;;;1.70;;
70981;SDS011;58640;51.320;9.456;2023-03-29T14:15:43;3.30;;;2.00;;
70981;SDS011;58640;51.320;9.456;2023-03-29T14:18:13;1.35;;;0.95;;
70981;SDS011;58640;51.320;9.456;2023-03-29T14:20:43;3.33;;;1.50;;
70981;SDS011;58640;51.320;9.456;2023-03-29T14:23:10;1.15;;;1.05;;
70981;SDS011;58640;51.320;9.456;2023-03-29T14:25:37;2.17;;;1.17;;
70981;SDS011;58640;51.320;9.456;2023-03-29T14:28:16;1.67;;;0.93;;
70981;SDS011;58640;51.320;9.456;2023-03-29T14:30:44;2.03;;;0.90;;
70981;SDS011;58640;51.320;9.456;2023-03-29T14:33:14;2.25;;;1.17;;
70981;SDS011;58640;51.320;9.456;2023-03-29T14:35:57;2.83;;;1.00;;
70981;SDS011;58640;51.320;9.456;2023-03-29T14:38:27;1.65;;;1.08;;
70981;SDS011;58640;51.320;9.456;2023-03-29T14:40:57;2.25;;;1.60;;
70981;SDS011;58640;51.320;9.456;2023-03-29T14:43:24;1.98;;;1.58;;
70981;SDS011;58640;51.320;9.456;2023-03-29T14:45:53;3.85;;;1.42;;
70981;SDS011;58640;51.320;9.456;2023-03-29T14:48:19;6.30;;;1.40;;
70981;SDS011;58640;51.320;9.456;2023-03-29T14:50:45;3.78;;;1.33;;
70981;SDS011;58640;51.320;9.456;2023-03-29T14:53:15;2.42;;;1.33;;
70981;SDS011;58640;51.320;9.456;2023-03-29T14:55:44;2.75;;;0.98;;
70981;SDS011;58640;51.320;9.456;2023-03-29T14:58:16;3.15;;;1.23;;
70981;SDS011;58640;51.320;9.456;2023-03-29T15:00:46;2.28;;;1.40;;
70981;SDS011;58640;51.320;9.456;2023-03-29T15:03:14;4.05;;;1.58;;
70981;SDS011;58640;51.320;9.456;2023-03-29T15:05:50;3.10;;;1.15;;
70981;SDS011;58640;51.320;9.456;2023-03-29T15:08:26;1.85;;;1.52;;
70981;SDS011;58640;51.320;9.456;2023-03-29T15:10:55;3.88;;;1.70;;
70981;SDS011;58640;51.320;9.456;2023-03-29T15:13:21;2.97;;;1.58;;
70981;SDS011;58640;51.320;9.456;2023-03-29T15:15:56;4.78;;;1.60;;
70981;SDS011;58640;51.320;9.456;2023-03-29T15:18:30;2.83;;;1.88;;
70981;SDS011;58640;51.320;9.456;2023-03-29T15:21:03;5.95;;;2.25;;
70981;SDS011;58640;51.320;9.456;2023-03-29T15:23:34;4.57;;;1.80;;
70981;SDS011;58640;51.320;9.456;2023-03-29T15:26:06;5.28;;;1.90;;
70981;SDS011;58640;51.320;9.456;2023-03-29T15:28:33;3.35;;;1.77;;
70981;SDS011;58640;51.320;9.456;2023-03-29T15:31:03;2.85;;;2.05;;
70981;SDS011;58640;51.320;9.456;2023-03-29T15:33:36;12.45;;;5.38;;
70981;SDS011;58640;51.320;9.456;2023-03-29T15:36:03;6.13;;;2.88;;
70981;SDS011;58640;51.320;9.456;2023-03-29T15:38:30;4.70;;;2.13;;
70981;SDS011;58640;51.320;9.456;2023-03-29T15:40:56;5.85;;;2.28;;
70981;SDS011;58640;51.320;9.456;2023-03-29T15:43:22;3.78;;;2.00;;
70981;SDS011;58640;51.320;9.456;2023-03-29T15:45:48;3.47;;;1.92;;
70981;SDS011;58640;51.320;9.456;2023-03-29T15:48:14;5.70;;;1.90;;
70981;SDS011;58640;51.320;9.456;2023-03-29T15:50:42;4.32;;;1.90;;
70981;SDS011;58640;51.320;9.456;2023-03-29T15:53:09;6.55;;;2.10;;
70981;SDS011;58640;51.320;9.456;2023-03-29T15:55:34;5.03;;;2.42;;
70981;SDS011;58640;51.320;9.456;2023-03-29T15:58:03;4.93;;;2.13;;
70981;SDS011;58640;51.320;9.456;2023-03-29T16:00:28;4.65;;;2.13;;
70981;SDS011;58640;51.320;9.456;2023-03-29T16:02:54;6.13;;;2.53;;
70981;SDS011;58640;51.320;9.456;2023-03-29T16:05:19;4.78;;;1.98;;
70981;SDS011;58640;51.320;9.456;2023-03-29T16:07:45;3.95;;;2.22;;
70981;SDS011;58640;51.320;9.456;2023-03-29T16:10:10;4.90;;;2.17;;
70981;SDS011;58640;51.320;9.456;2023-03-29T16:12:36;4.32;;;2.17;;
70981;SDS011;58640;51.320;9.456;2023-03-29T16:15:16;6.25;;;2.30;;
70981;SDS011;58640;51.320;9.456;2023-03-29T16:17:44;2.97;;;2.20;;
70981;SDS011;58640;51.320;9.456;2023-03-29T16:20:09;3.83;;;2.92;;
70981;SDS011;58640;51.320;9.456;2023-03-29T16:22:38;2.83;;;2.28;;
70981;SDS011;58640;51.320;9.456;2023-03-29T16:25:08;4.90;;;2.78;;
70981;SDS011;58640;51.320;9.456;2023-03-29T16:27:37;9.15;;;2.70;;
70981;SDS011;58640;51.320;9.456;2023-03-29T16:30:02;9.23;;;2.58;;
70981;SDS011;58640;51.320;9.456;2023-03-29T16:32:28;9.88;;;3.00;;